Time;durP1;ratioP1;P1;durP2;ratioP2;P2;SDS_P1;SDS_P2;PMS_P1;PMS_P2;Temp;Humidity;BMP_temperature;BMP_pressure;BME280_temperature;BME280_humidity;BME280_pressure;Samples;Min_cycle;Max_cycle;Signal;HPM_P1;HPM_P2
2022/11/02 00:00:35;;;;;;;13.47;3.33;;;;;;;;;;5056605;28;20218;-71
2022/11/02 00:03:01;;;;;;;9.40;3.10;;;;;;;;;;5056137;28;20712;-71
2022/11/02 00:05:27;;;;;;;14.13;3.30;;;;;;;;;;5055904;28;20273;-71
2022/11/02 00:07:54;;;;;;;8.53;2.73;;;;;;;;;;5038087;28;20297;-72
2022/11/02 00:10:21;;;;;;;10.57;2.70;;;;;;;;;;5055779;28;20583;-71
2022/11/02 00:12:47;;;;;;;11.97;3.17;;;;;;;;;;5056019;28;20534;-72
2022/11/02 00:15:14;;;;;;;11.97;3.20;;;;;;;;;;5055831;28;20269;-72
2022/11/02 00:17:41;;;;;;;10.13;2.93;;;;;;;;;;5055355;28;20225;-72
2022/11/02 00:20:08;;;;;;;11.17;3.03;;;;;;;;;;5056213;28;20265;-72
2022/11/02 00:22:34;;;;;;;11.60;3.03;;;;;;;;;;5038000;28;20179;-72
2022/11/02 00:25:05;;;;;;;13.60;3.33;;;;;;;;;;5055884;28;20212;-72
2022/11/02 00:27:31;;;;;;;17.10;3.83;;;;;;;;;;5037862;28;20206;-71
2022/11/02 00:29:58;;;;;;;12.23;3.37;;;;;;;;;;5055742;28;20178;-72
2022/11/02 00:32:25;;;;;;;11.93;3.20;;;;;;;;;;5055546;28;20178;-71
2022/11/02 00:34:51;;;;;;;10.53;2.93;;;;;;;;;;5037701;28;20186;-71
2022/11/02 00:37:17;;;;;;;11.43;3.37;;;;;;;;;;5055753;28;20267;-72
2022/11/02 00:39:43;;;;;;;9.67;3.33;;;;;;;;;;5057732;28;20189;-72
2022/11/02 00:42:10;;;;;;;14.83;3.33;;;;;;;;;;5060626;28;20257;-71
2022/11/02 00:44:35;;;;;;;11.63;3.17;;;;;;;;;;5061044;28;20293;-72
2022/11/02 00:47:01;;;;;;;8.87;2.60;;;;;;;;;;5058532;28;20218;-71
2022/11/02 00:49:27;;;;;;;15.60;3.40;;;;;;;;;;5055992;28;20525;-72
2022/11/02 00:51:54;;;;;;;8.90;2.93;;;;;;;;;;5056072;28;20673;-71
2022/11/02 00:54:19;;;;;;;11.43;3.30;;;;;;;;;;5055448;28;20205;-72
2022/11/02 00:56:45;;;;;;;11.73;3.10;;;;;;;;;;5055054;28;20190;-70
2022/11/02 00:59:11;;;;;;;12.60;3.13;;;;;;;;;;5055048;28;20179;-71
2022/11/02 01:01:37;;;;;;;13.97;3.67;;;;;;;;;;5055110;28;20178;-73
2022/11/02 01:04:03;;;;;;;9.80;2.80;;;;;;;;;;5054980;28;20174;-71
2022/11/02 01:06:29;;;;;;;12.93;2.87;;;;;;;;;;5054177;28;20198;-70
2022/11/02 01:08:55;;;;;;;16.77;3.03;;;;;;;;;;5054233;28;20261;-72
2022/11/02 01:11:22;;;;;;;11.47;2.97;;;;;;;;;;5054741;28;20206;-71
2022/11/02 01:13:50;;;;;;;10.57;2.80;;;;;;;;;;5055250;28;20178;-72
2022/11/02 01:16:15;;;;;;;13.70;2.57;;;;;;;;;;5054734;28;20587;-71
2022/11/02 01:18:42;;;;;;;17.73;3.23;;;;;;;;;;5054497;28;20199;-71
2022/11/02 01:21:08;;;;;;;16.13;3.17;;;;;;;;;;5054899;28;20186;-72
2022/11/02 01:23:35;;;;;;;9.37;2.50;;;;;;;;;;5054639;28;20183;-71
2022/11/02 01:26:02;;;;;;;14.03;2.97;;;;;;;;;;5054375;28;20216;-71
2022/11/02 01:28:28;;;;;;;11.23;3.00;;;;;;;;;;5054380;28;20197;-72
2022/11/02 01:30:54;;;;;;;12.60;3.00;;;;;;;;;;5054451;28;20174;-72
2022/11/02 01:33:20;;;;;;;9.03;2.97;;;;;;;;;;5054432;28;20209;-71
2022/11/02 01:35:46;;;;;;;13.53;3.23;;;;;;;;;;5036347;28;20182;-72
2022/11/02 01:38:12;;;;;;;7.97;2.60;;;;;;;;;;5036238;28;20213;-72
2022/11/02 01:40:38;;;;;;;7.07;2.57;;;;;;;;;;5054111;28;20181;-72
2022/11/02 01:43:20;;;;;;;8.70;2.80;;;;;;;;;;5054137;28;20178;-71
2022/11/02 01:45:47;;;;;;;14.17;3.20;;;;;;;;;;5054410;28;20202;-71
2022/11/02 01:48:13;;;;;;;11.93;3.20;;;;;;;;;;5053915;28;20285;-72
2022/11/02 01:50:39;;;;;;;13.57;2.90;;;;;;;;;;5054218;28;20686;-72
2022/11/02 01:53:05;;;;;;;9.60;2.30;;;;;;;;;;5053815;28;20190;-72
2022/11/02 01:55:32;;;;;;;8.57;2.20;;;;;;;;;;5053915;28;20182;-72
2022/11/02 01:58:04;;;;;;;9.47;2.90;;;;;;;;;;5053955;28;20204;-71
2022/11/02 02:00:30;;;;;;;9.67;2.70;;;;;;;;;;5053987;28;20544;-71
2022/11/02 02:03:15;;;;;;;9.30;2.70;;;;;;;;;;5054225;28;20171;-71
2022/11/02 02:05:42;;;;;;;11.83;3.43;;;;;;;;;;5053710;28;20186;-71
2022/11/02 02:08:09;;;;;;;12.93;3.03;;;;;;;;;;5053465;28;20194;-71
2022/11/02 02:10:35;;;;;;;9.13;2.93;;;;;;;;;;5053586;28;20300;-71
2022/11/02 02:13:02;;;;;;;9.80;2.33;;;;;;;;;;5053543;28;20170;-71
2022/11/02 02:15:36;;;;;;;17.20;3.73;;;;;;;;;;5054101;28;20280;-71
2022/11/02 02:18:06;;;;;;;8.33;2.60;;;;;;;;;;5052935;28;20214;-71
2022/11/02 02:20:48;;;;;;;9.63;2.70;;;;;;;;;;5053565;28;20224;-71
2022/11/02 02:23:36;;;;;;;7.13;2.80;;;;;;;;;;5053520;28;20257;-71
2022/11/02 02:26:20;;;;;;;11.83;3.17;;;;;;;;;;5053291;28;20190;-71
2022/11/02 02:29:21;;;;;;;11.03;2.83;;;;;;;;;;5053450;28;20189;-70
2022/11/02 02:31:58;;;;;;;15.13;3.60;;;;;;;;;;4956467;28;20625;-71
2022/11/02 02:34:27;;;;;;;11.03;3.97;;;;;;;;;;5043037;28;20194;-71
2022/11/02 02:36:53;;;;;;;11.30;3.97;;;;;;;;;;5053076;28;20279;-70
2022/11/02 02:39:29;;;;;;;13.97;4.13;;;;;;;;;;5058665;28;20191;-71
2022/11/02 02:42:01;;;;;;;14.33;4.17;;;;;;;;;;5041646;28;20178;-71
2022/11/02 02:44:29;;;;;;;13.50;3.77;;;;;;;;;;5040552;28;20175;-71
2022/11/02 02:47:00;;;;;;;15.97;4.60;;;;;;;;;;5057830;28;20206;-72
2022/11/02 02:49:29;;;;;;;10.47;3.43;;;;;;;;;;5053337;28;20224;-71
2022/11/02 02:51:56;;;;;;;9.80;3.80;;;;;;;;;;5053076;28;20646;-71
2022/11/02 02:54:24;;;;;;;15.30;3.83;;;;;;;;;;5053133;28;20178;-72
2022/11/02 02:56:54;;;;;;;16.70;3.90;;;;;;;;;;5053531;28;20194;-71
2022/11/02 02:59:25;;;;;;;12.40;2.73;;;;;;;;;;5053790;28;20175;-72
2022/11/02 03:01:52;;;;;;;12.77;3.20;;;;;;;;;;5053232;28;20197;-72
2022/11/02 03:04:18;;;;;;;11.90;3.10;;;;;;;;;;5053316;28;20261;-72
2022/11/02 03:06:47;;;;;;;11.87;3.23;;;;;;;;;;5053724;28;20305;-72
2022/11/02 03:09:13;;;;;;;12.37;3.90;;;;;;;;;;5053152;28;20650;-71
2022/11/02 03:11:50;;;;;;;11.87;3.20;;;;;;;;;;5053333;28;20283;-71
2022/11/02 03:14:27;;;;;;;12.50;3.13;;;;;;;;;;5053126;28;20178;-72
2022/11/02 03:16:56;;;;;;;13.00;3.40;;;;;;;;;;5035238;28;20206;-71
2022/11/02 03:19:28;;;;;;;12.87;3.03;;;;;;;;;;5054754;28;20312;-71
2022/11/02 03:22:11;;;;;;;13.97;3.33;;;;;;;;;;5053858;28;20186;-72
2022/11/02 03:24:42;;;;;;;9.93;2.97;;;;;;;;;;5035629;28;20263;-72
2022/11/02 03:27:14;;;;;;;10.70;3.10;;;;;;;;;;5054708;28;20265;-71
2022/11/02 03:29:53;;;;;;;9.37;3.30;;;;;;;;;;5056154;28;20166;-71
2022/11/02 03:32:26;;;;;;;13.73;3.13;;;;;;;;;;5059181;28;20676;-71
2022/11/02 03:34:54;;;;;;;10.63;2.80;;;;;;;;;;5059042;28;20226;-72
2022/11/02 03:37:32;;;;;;;10.27;2.90;;;;;;;;;;5059816;28;20198;-72
2022/11/02 03:40:10;;;;;;;11.70;3.20;;;;;;;;;;5057228;28;20182;-72
2022/11/02 03:42:37;;;;;;;8.77;2.93;;;;;;;;;;5056858;28;20249;-72
2022/11/02 03:45:09;;;;;;;13.17;2.53;;;;;;;;;;5057025;28;20200;-72
2022/11/02 03:47:36;;;;;;;8.10;3.03;;;;;;;;;;5056418;28;20260;-72
2022/11/02 03:50:03;;;;;;;7.23;2.50;;;;;;;;;;5056406;28;20178;-72
2022/11/02 03:52:31;;;;;;;11.33;2.93;;;;;;;;;;5056369;28;20198;-72
2022/11/02 03:55:04;;;;;;;14.63;3.10;;;;;;;;;;5056516;28;20178;-72
2022/11/02 03:57:35;;;;;;;7.70;2.47;;;;;;;;;;5056279;28;20285;-71
2022/11/02 04:00:08;;;;;;;11.70;3.50;;;;;;;;;;5055886;28;20211;-72
2022/11/02 04:02:36;;;;;;;9.50;2.87;;;;;;;;;;5056128;28;20178;-72
2022/11/02 04:05:01;;;;;;;10.13;2.90;;;;;;;;;;5055905;28;20202;-72
2022/11/02 04:08:19;;;;;;;10.97;3.40;;;;;;;;;;5055942;28;20198;-72
2022/11/02 04:10:17;;;;;;;7.33;2.53;;;;;;;;;;5055601;28;20195;-72
2022/11/02 04:15:27;;;;;;;9.90;2.63;;;;;;;;;;5055949;28;20232;-71
2022/11/02 04:20:37;;;;;;;8.23;2.70;;;;;;;;;;5055675;28;20170;-71
2022/11/02 04:25:55;;;;;;;8.10;2.73;;;;;;;;;;5032110;28;20252;-71
2022/11/02 04:28:21;;;;;;;7.23;2.50;;;;;;;;;;5055474;28;20234;-72
2022/11/02 04:30:47;;;;;;;7.53;2.63;;;;;;;;;;5055473;28;20261;-72
2022/11/02 04:33:31;;;;;;;9.77;2.50;;;;;;;;;;5055626;28;20261;-71
2022/11/02 04:36:01;;;;;;;11.20;2.80;;;;;;;;;;5037568;28;20166;-71
2022/11/02 04:38:40;;;;;;;9.33;2.70;;;;;;;;;;5055193;28;20195;-71
2022/11/02 04:43:51;;;;;;;13.57;3.87;;;;;;;;;;5055891;28;20529;-71
2022/11/02 04:46:17;;;;;;;9.37;3.20;;;;;;;;;;5055424;28;20240;-71
2022/11/02 04:48:43;;;;;;;5.73;2.63;;;;;;;;;;5055122;28;20218;-72
2022/11/02 04:51:09;;;;;;;9.00;2.83;;;;;;;;;;5055179;28;20178;-71
2022/11/02 04:53:35;;;;;;;8.77;2.70;;;;;;;;;;5055379;28;20265;-71
2022/11/02 04:56:01;;;;;;;10.73;2.83;;;;;;;;;;5055326;28;20215;-73
2022/11/02 04:58:27;;;;;;;11.87;2.83;;;;;;;;;;5055059;28;20209;-71
2022/11/02 05:00:53;;;;;;;12.23;2.90;;;;;;;;;;5056392;28;20187;-71
2022/11/02 05:03:19;;;;;;;8.97;2.97;;;;;;;;;;5054954;28;20193;-71
2022/11/02 05:05:45;;;;;;;12.47;3.33;;;;;;;;;;5054984;28;20194;-72
2022/11/02 05:08:11;;;;;;;10.23;2.80;;;;;;;;;;5054855;28;20201;-72
2022/11/02 05:10:37;;;;;;;15.23;3.10;;;;;;;;;;5054737;28;20261;-71
2022/11/02 05:13:03;;;;;;;17.07;4.43;;;;;;;;;;5102467;22;20236;-65
2022/11/02 05:15:29;;;;;;;7.87;3.07;;;;;;;;;;5074772;28;20178;-66
2022/11/02 05:17:55;;;;;;;10.57;2.87;;;;;;;;;;5075467;28;20260;-65
2022/11/02 05:20:21;;;;;;;4.77;2.10;;;;;;;;;;5074609;28;20177;-65
2022/11/02 05:22:47;;;;;;;13.73;3.20;;;;;;;;;;5073102;28;20206;-66
2022/11/02 05:25:13;;;;;;;13.47;3.00;;;;;;;;;;5073086;28;20206;-65
2022/11/02 05:27:38;;;;;;;10.77;3.10;;;;;;;;;;5073180;28;20223;-65
2022/11/02 05:30:05;;;;;;;12.20;2.63;;;;;;;;;;5073072;28;20192;-65
2022/11/02 05:32:31;;;;;;;8.80;2.57;;;;;;;;;;5074219;28;20570;-64
2022/11/02 05:34:57;;;;;;;10.67;3.33;;;;;;;;;;5072859;28;20234;-65
2022/11/02 05:37:23;;;;;;;12.07;3.13;;;;;;;;;;5074796;28;20538;-65
2022/11/02 05:39:49;;;;;;;12.23;2.87;;;;;;;;;;5074934;28;20653;-65
2022/11/02 05:42:15;;;;;;;11.47;3.17;;;;;;;;;;5074429;28;20674;-65
2022/11/02 05:44:41;;;;;;;7.57;2.20;;;;;;;;;;5074045;28;20249;-65
2022/11/02 05:47:07;;;;;;;11.40;3.10;;;;;;;;;;5074161;28;20201;-65
2022/11/02 05:49:33;;;;;;;14.17;3.10;;;;;;;;;;5072770;28;20205;-65
2022/11/02 05:51:59;;;;;;;13.77;2.87;;;;;;;;;;5074008;28;20687;-65
2022/11/02 05:54:25;;;;;;;11.80;3.23;;;;;;;;;;5073291;28;20239;-65
2022/11/02 05:56:51;;;;;;;8.50;2.97;;;;;;;;;;5074574;28;20635;-65
2022/11/02 05:59:17;;;;;;;9.77;2.93;;;;;;;;;;5074815;28;20189;-65
2022/11/02 06:01:43;;;;;;;10.97;3.33;;;;;;;;;;5072324;28;20194;-65
2022/11/02 06:04:09;;;;;;;11.07;3.13;;;;;;;;;;5073757;28;20540;-65
2022/11/02 06:06:35;;;;;;;10.73;2.83;;;;;;;;;;5072476;28;20209;-65
2022/11/02 06:09:01;;;;;;;10.33;2.80;;;;;;;;;;5072360;28;20268;-65
2022/11/02 06:11:27;;;;;;;15.37;2.77;;;;;;;;;;5072170;28;20177;-66
2022/11/02 06:13:53;;;;;;;11.13;3.53;;;;;;;;;;5073677;28;20633;-65
2022/11/02 06:16:19;;;;;;;14.93;3.60;;;;;;;;;;5072653;28;20173;-67
2022/11/02 06:18:45;;;;;;;12.53;3.07;;;;;;;;;;5072267;28;20184;-65
2022/11/02 06:21:11;;;;;;;11.73;3.90;;;;;;;;;;5073696;28;20189;-64
2022/11/02 06:23:38;;;;;;;13.00;4.07;;;;;;;;;;5073308;28;20178;-65
2022/11/02 06:26:04;;;;;;;12.97;4.17;;;;;;;;;;5073781;28;20640;-65
2022/11/02 06:28:30;;;;;;;9.97;3.13;;;;;;;;;;5073370;28;20258;-65
2022/11/02 06:30:56;;;;;;;14.97;3.43;;;;;;;;;;5073654;28;20174;-67
2022/11/02 06:33:22;;;;;;;9.30;3.10;;;;;;;;;;5073398;28;20189;-64
2022/11/02 06:35:52;;;;;;;8.77;2.63;;;;;;;;;;5072221;28;20186;-65
2022/11/02 06:38:18;;;;;;;15.13;3.27;;;;;;;;;;5072126;28;20181;-66
2022/11/02 06:40:52;;;;;;;14.13;3.03;;;;;;;;;;5073257;28;20209;-65
2022/11/02 06:43:18;;;;;;;12.60;3.50;;;;;;;;;;5073247;28;20228;-64
2022/11/02 06:45:45;;;;;;;14.90;3.70;;;;;;;;;;5073074;28;20236;-65
2022/11/02 06:48:11;;;;;;;9.37;3.30;;;;;;;;;;5073268;28;20536;-65
2022/11/02 06:50:37;;;;;;;13.57;3.33;;;;;;;;;;5073330;28;20170;-65
2022/11/02 06:53:02;;;;;;;11.53;3.73;;;;;;;;;;5073367;28;20190;-65
2022/11/02 06:55:28;;;;;;;11.83;3.60;;;;;;;;;;5073353;28;20261;-66
2022/11/02 06:57:54;;;;;;;14.17;4.13;;;;;;;;;;5072341;28;20287;-66
2022/11/02 07:00:21;;;;;;;11.23;3.97;;;;;;;;;;5073450;28;20182;-65
2022/11/02 07:02:58;;;;;;;11.90;3.57;;;;;;;;;;5073181;28;20768;-66
2022/11/02 07:05:24;;;;;;;14.90;3.00;;;;;;;;;;5076078;28;20193;-64
2022/11/02 07:07:52;;;;;;;11.37;3.07;;;;;;;;;;5077827;28;20180;-64
2022/11/02 07:10:18;;;;;;;16.43;3.80;;;;;;;;;;5077962;28;20545;-65
2022/11/02 07:12:44;;;;;;;13.27;3.17;;;;;;;;;;5077470;28;20213;-64
2022/11/02 07:15:10;;;;;;;13.30;3.23;;;;;;;;;;5077532;28;20177;-65
2022/11/02 07:17:39;;;;;;;11.27;3.43;;;;;;;;;;5077383;28;20203;-64
2022/11/02 07:20:06;;;;;;;15.50;5.83;;;;;;;;;;5077518;28;20181;-64
2022/11/02 07:22:31;;;;;;;11.90;4.73;;;;;;;;;;5075941;28;20291;-64
2022/11/02 07:24:57;;;;;;;14.33;3.87;;;;;;;;;;5076487;28;20220;-64
2022/11/02 07:27:23;;;;;;;11.60;3.57;;;;;;;;;;5077102;28;20257;-65
2022/11/02 07:29:49;;;;;;;11.77;2.90;;;;;;;;;;5077854;28;20174;-64
2022/11/02 07:32:15;;;;;;;15.37;3.40;;;;;;;;;;5075929;28;20224;-65
2022/11/02 07:34:41;;;;;;;16.20;5.23;;;;;;;;;;5077507;28;20207;-64
2022/11/02 07:37:07;;;;;;;11.20;3.20;;;;;;;;;;5076892;28;20170;-65
2022/11/02 07:39:33;;;;;;;12.03;3.67;;;;;;;;;;5076826;28;20177;-65
2022/11/02 07:41:59;;;;;;;10.53;3.03;;;;;;;;;;5076773;28;20277;-65
2022/11/02 07:44:25;;;;;;;13.83;3.63;;;;;;;;;;5076650;28;20202;-65
2022/11/02 07:46:51;;;;;;;12.93;3.50;;;;;;;;;;5075427;28;20272;-65
2022/11/02 07:49:17;;;;;;;10.10;3.50;;;;;;;;;;5075325;28;20189;-66
2022/11/02 07:51:43;;;;;;;12.30;2.90;;;;;;;;;;5076612;28;20194;-66
2022/11/02 07:54:09;;;;;;;10.80;2.73;;;;;;;;;;5075150;28;20185;-64
2022/11/02 07:56:35;;;;;;;12.03;3.13;;;;;;;;;;5076152;28;20181;-65
2022/11/02 07:59:01;;;;;;;11.40;3.50;;;;;;;;;;5074980;28;20188;-64
2022/11/02 08:01:27;;;;;;;10.60;3.60;;;;;;;;;;5076382;28;20177;-65
2022/11/02 08:03:53;;;;;;;13.87;4.07;;;;;;;;;;5076307;28;20638;-65
2022/11/02 08:06:19;;;;;;;10.97;3.57;;;;;;;;;;5076081;28;20247;-65
2022/11/02 08:08:45;;;;;;;11.23;3.20;;;;;;;;;;5074999;28;20178;-64
2022/11/02 08:11:11;;;;;;;11.63;3.53;;;;;;;;;;5074880;28;20268;-65
2022/11/02 08:13:37;;;;;;;10.43;2.93;;;;;;;;;;5075954;28;20185;-65
2022/11/02 08:16:03;;;;;;;9.33;2.90;;;;;;;;;;5075488;28;20178;-64
2022/11/02 08:18:29;;;;;;;15.67;3.83;;;;;;;;;;5075955;28;20182;-64
2022/11/02 08:20:56;;;;;;;12.47;3.27;;;;;;;;;;5075657;28;20239;-64
2022/11/02 08:23:22;;;;;;;14.33;3.87;;;;;;;;;;5076025;28;20623;-66
2022/11/02 08:25:49;;;;;;;13.90;2.97;;;;;;;;;;5076062;28;20221;-65
2022/11/02 08:28:17;;;;;;;13.43;3.53;;;;;;;;;;5074645;28;20182;-65
2022/11/02 08:30:43;;;;;;;14.13;3.90;;;;;;;;;;5074758;28;20205;-64
2022/11/02 08:33:14;;;;;;;12.17;3.90;;;;;;;;;;5075558;28;20197;-65
2022/11/02 08:35:41;;;;;;;14.37;4.97;;;;;;;;;;5075838;28;20711;-66
2022/11/02 08:38:07;;;;;;;11.53;4.03;;;;;;;;;;5075735;28;20208;-65
2022/11/02 08:40:33;;;;;;;13.67;4.50;;;;;;;;;;5076020;28;20260;-65
2022/11/02 08:43:00;;;;;;;12.37;3.27;;;;;;;;;;5074265;28;20212;-66
2022/11/02 08:45:26;;;;;;;10.60;4.20;;;;;;;;;;5074465;28;20201;-64
2022/11/02 08:47:52;;;;;;;13.43;4.57;;;;;;;;;;5074476;28;20560;-65
2022/11/02 08:50:18;;;;;;;14.80;3.73;;;;;;;;;;5075726;28;20265;-67
2022/11/02 08:52:44;;;;;;;9.77;3.40;;;;;;;;;;5074029;28;20230;-65
2022/11/02 08:55:10;;;;;;;16.23;3.90;;;;;;;;;;5075732;28;20181;-65
2022/11/02 08:57:49;;;;;;;12.50;2.93;;;;;;;;;;5074227;28;20539;-66
2022/11/02 09:00:16;;;;;;;11.53;3.53;;;;;;;;;;5073949;28;20551;-66
2022/11/02 09:02:43;;;;;;;20.77;3.50;;;;;;;;;;5074088;28;20201;-67
2022/11/02 09:05:09;;;;;;;9.90;3.60;;;;;;;;;;5075726;28;20274;-66
2022/11/02 09:07:35;;;;;;;14.13;4.13;;;;;;;;;;5073959;28;20185;-66
2022/11/02 09:10:01;;;;;;;12.77;3.77;;;;;;;;;;5073682;28;20562;-66
2022/11/02 09:12:27;;;;;;;13.37;3.23;;;;;;;;;;5075105;28;20213;-66
2022/11/02 09:14:53;;;;;;;9.17;3.50;;;;;;;;;;5075117;28;20550;-66
2022/11/02 09:17:19;;;;;;;8.40;3.43;;;;;;;;;;5075253;28;20552;-65
2022/11/02 09:19:45;;;;;;;15.00;4.17;;;;;;;;;;5073541;28;20189;-64
2022/11/02 09:22:11;;;;;;;14.33;3.97;;;;;;;;;;5074761;28;20240;-64
2022/11/02 09:24:37;;;;;;;16.30;4.27;;;;;;;;;;5074532;28;20177;-64
2022/11/02 09:27:03;;;;;;;11.70;4.20;;;;;;;;;;5074736;28;20204;-65
2022/11/02 09:29:29;;;;;;;18.90;6.33;;;;;;;;;;5074082;28;20561;-66
2022/11/02 09:31:55;;;;;;;11.30;4.17;;;;;;;;;;5074282;28;20327;-64
2022/11/02 09:34:20;;;;;;;16.20;3.50;;;;;;;;;;5073408;28;20299;-64
2022/11/02 09:36:46;;;;;;;14.47;3.33;;;;;;;;;;5074634;28;20181;-64
2022/11/02 09:39:12;;;;;;;13.23;3.20;;;;;;;;;;5074476;28;20186;-63
2022/11/02 09:41:45;;;;;;;10.03;3.63;;;;;;;;;;5073106;28;20201;-64
2022/11/02 09:44:14;;;;;;;10.90;3.17;;;;;;;;;;5074273;28;20177;-64
2022/11/02 09:46:41;;;;;;;11.67;3.30;;;;;;;;;;5074450;28;20673;-63
2022/11/02 09:49:15;;;;;;;9.07;3.50;;;;;;;;;;5074226;28;20173;-64
2022/11/02 09:51:46;;;;;;;9.77;3.17;;;;;;;;;;5072985;28;20567;-63
2022/11/02 09:54:18;;;;;;;9.87;3.53;;;;;;;;;;5074081;28;20553;-63
2022/11/02 09:56:45;;;;;;;11.90;3.00;;;;;;;;;;5074029;28;20177;-64
2022/11/02 09:59:14;;;;;;;16.97;3.37;;;;;;;;;;5074287;28;20202;-64
2022/11/02 10:01:58;;;;;;;14.27;4.07;;;;;;;;;;5074392;28;20664;-64
2022/11/02 10:04:36;;;;;;;17.13;3.40;;;;;;;;;;5074318;28;20181;-65
2022/11/02 10:07:07;;;;;;;9.40;2.80;;;;;;;;;;5072676;28;20189;-64
2022/11/02 10:09:39;;;;;;;15.30;3.80;;;;;;;;;;5073738;28;20637;-62
2022/11/02 10:12:12;;;;;;;15.87;3.00;;;;;;;;;;5073864;28;20209;-64
2022/11/02 10:14:40;;;;;;;7.80;2.63;;;;;;;;;;5074104;28;20723;-64
2022/11/02 10:17:05;;;;;;;21.73;3.53;;;;;;;;;;5072432;28;20178;-64
2022/11/02 10:19:34;;;;;;;8.90;2.73;;;;;;;;;;5073618;28;20273;-63
2022/11/02 10:22:00;;;;;;;14.07;3.43;;;;;;;;;;5073713;28;20248;-65
2022/11/02 10:24:41;;;;;;;12.50;3.53;;;;;;;;;;5073639;28;20174;-64
2022/11/02 10:27:13;;;;;;;13.10;3.57;;;;;;;;;;5072329;28;20197;-64
2022/11/02 10:29:42;;;;;;;9.27;3.33;;;;;;;;;;5072224;28;20254;-65
2022/11/02 10:32:10;;;;;;;8.00;2.53;;;;;;;;;;5073423;28;20200;-66
2022/11/02 10:34:36;;;;;;;13.80;3.20;;;;;;;;;;5073646;28;20174;-64
2022/11/02 10:37:05;;;;;;;10.73;3.27;;;;;;;;;;5073386;28;20188;-65
2022/11/02 10:39:45;;;;;;;14.73;3.20;;;;;;;;;;5072013;28;20200;-65
2022/11/02 10:42:20;;;;;;;9.40;2.70;;;;;;;;;;5072081;28;20743;-66
2022/11/02 10:45:04;;;;;;;11.53;3.00;;;;;;;;;;5073965;28;20165;-65
2022/11/02 10:47:34;;;;;;;17.50;2.97;;;;;;;;;;5073265;28;20235;-62
2022/11/02 10:50:18;;;;;;;8.17;2.50;;;;;;;;;;5073460;28;20212;-65
2022/11/02 10:52:45;;;;;;;11.63;3.30;;;;;;;;;;5072433;28;20194;-65
2022/11/02 10:55:16;;;;;;;8.83;2.70;;;;;;;;;;5073374;28;20181;-65
2022/11/02 10:57:42;;;;;;;10.67;3.23;;;;;;;;;;5073569;28;20165;-68
2022/11/02 11:00:25;;;;;;;15.10;3.57;;;;;;;;;;5072300;28;20234;-64
2022/11/02 11:03:07;;;;;;;9.40;2.70;;;;;;;;;;5072082;28;20701;-65
2022/11/02 11:05:35;;;;;;;11.00;3.87;;;;;;;;;;5073163;28;20251;-64
2022/11/02 11:08:01;;;;;;;11.60;2.83;;;;;;;;;;5073167;28;20642;-65
2022/11/02 11:10:27;;;;;;;12.60;2.53;;;;;;;;;;5073846;28;20173;-65
2022/11/02 11:12:54;;;;;;;10.50;3.10;;;;;;;;;;5073051;28;20220;-65
2022/11/02 11:15:22;;;;;;;8.40;2.50;;;;;;;;;;5073775;28;20275;-64
2022/11/02 11:17:48;;;;;;;12.80;3.00;;;;;;;;;;5072076;28;20186;-66
2022/11/02 11:20:35;;;;;;;9.80;2.80;;;;;;;;;;5073216;28;20177;-67
2022/11/02 11:23:11;;;;;;;9.47;2.90;;;;;;;;;;5073070;28;20206;-64
2022/11/02 11:25:37;;;;;;;10.30;2.70;;;;;;;;;;5073233;28;20190;-66
2022/11/02 11:28:20;;;;;;;11.07;3.07;;;;;;;;;;5071770;28;20185;-65
2022/11/02 11:30:47;;;;;;;15.73;3.40;;;;;;;;;;5073437;28;20159;-65
2022/11/02 11:33:19;;;;;;;13.70;3.40;;;;;;;;;;5071760;28;20202;-65
2022/11/02 11:35:48;;;;;;;10.97;3.20;;;;;;;;;;5096164;22;21139;-69
2022/11/02 11:38:15;;;;;;;11.93;2.90;;;;;;;;;;5053923;28;20163;-70
2022/11/02 11:40:47;;;;;;;13.13;3.67;;;;;;;;;;5036597;28;20185;-70
2022/11/02 11:43:15;;;;;;;8.93;2.63;;;;;;;;;;5054093;28;20639;-70
2022/11/02 11:45:53;;;;;;;10.70;2.93;;;;;;;;;;5054071;28;20540;-71
2022/11/02 11:48:19;;;;;;;8.80;3.10;;;;;;;;;;5056059;28;20159;-70
2022/11/02 11:50:48;;;;;;;12.10;3.30;;;;;;;;;;5053957;28;20635;-69
2022/11/02 11:53:14;;;;;;;10.63;3.37;;;;;;;;;;5040114;28;20185;-69
2022/11/02 11:55:54;;;;;;;12.70;7.80;;;;;;;;;;5058383;28;20178;-69
2022/11/02 11:58:21;;;;;;;8.43;2.60;;;;;;;;;;5042578;28;20185;-69
2022/11/02 12:01:02;;;;;;;8.90;2.93;;;;;;;;;;5041536;28;20194;-69
2022/11/02 12:03:28;;;;;;;10.00;3.20;;;;;;;;;;5058959;28;20169;-70
2022/11/02 12:05:54;;;;;;;9.47;2.23;;;;;;;;;;5057833;28;20211;-70
2022/11/02 12:08:25;;;;;;;17.43;6.87;;;;;;;;;;5040980;28;20206;-70
2022/11/02 12:11:10;;;;;;;7.93;3.10;;;;;;;;;;5060525;28;20247;-70
2022/11/02 12:13:58;;;;;;;11.93;3.60;;;;;;;;;;5041455;28;20556;-69
2022/11/02 12:16:30;;;;;;;8.57;3.20;;;;;;;;;;5058215;28;20277;-69
2022/11/02 12:19:15;;;;;;;12.00;4.40;;;;;;;;;;5041358;28;20227;-69
2022/11/02 12:21:41;;;;;;;13.37;4.20;;;;;;;;;;5040118;28;20186;-69
2022/11/02 12:24:11;;;;;;;12.80;3.87;;;;;;;;;;5058013;28;20182;-68
2022/11/02 12:26:46;;;;;;;10.87;4.67;;;;;;;;;;5057380;28;20210;-69
2022/11/02 12:29:37;;;;;;;19.50;7.20;;;;;;;;;;5058392;28;20173;-69
2022/11/02 12:32:13;;;;;;;12.57;3.97;;;;;;;;;;5059230;28;20163;-70
2022/11/02 12:34:49;;;;;;;16.43;3.07;;;;;;;;;;5041018;28;20182;-70
2022/11/02 12:37:22;;;;;;;12.67;3.33;;;;;;;;;;5057878;28;20690;-69
2022/11/02 12:40:17;;;;;;;14.17;3.53;;;;;;;;;;5058033;28;20158;-69
2022/11/02 12:42:55;;;;;;;10.53;2.87;;;;;;;;;;5056942;28;20232;-70
2022/11/02 12:45:25;;;;;;;11.93;3.10;;;;;;;;;;5038965;28;20272;-70
2022/11/02 12:47:56;;;;;;;8.53;2.83;;;;;;;;;;5038593;28;20217;-71
2022/11/02 12:50:41;;;;;;;10.53;3.47;;;;;;;;;;5057079;28;20174;-70
2022/11/02 12:53:21;;;;;;;8.33;2.80;;;;;;;;;;5058024;28;20596;-70
2022/11/02 12:55:49;;;;;;;10.00;3.30;;;;;;;;;;5056806;28;20549;-71
2022/11/02 12:58:26;;;;;;;15.60;3.40;;;;;;;;;;5056987;28;20236;-70
2022/11/02 13:01:13;;;;;;;7.10;2.80;;;;;;;;;;5056797;28;20155;-70
2022/11/02 13:03:46;;;;;;;8.27;2.70;;;;;;;;;;5056336;28;20162;-69
2022/11/02 13:06:15;;;;;;;10.70;3.07;;;;;;;;;;5056576;28;20206;-71
2022/11/02 13:08:41;;;;;;;13.37;3.30;;;;;;;;;;5056729;28;20171;-70
2022/11/02 13:11:12;;;;;;;12.70;3.27;;;;;;;;;;5055532;28;20196;-68
2022/11/02 13:13:45;;;;;;;11.63;2.60;;;;;;;;;;5055248;28;20220;-70
2022/11/02 13:16:13;;;;;;;6.90;2.83;;;;;;;;;;5055064;28;20195;-69
2022/11/02 13:18:44;;;;;;;12.30;2.80;;;;;;;;;;5054934;28;20178;-70
2022/11/02 13:21:11;;;;;;;11.97;3.17;;;;;;;;;;5036915;28;20171;-70
2022/11/02 13:23:43;;;;;;;10.93;3.00;;;;;;;;;;5054677;28;20193;-71
2022/11/02 13:26:15;;;;;;;14.33;3.87;;;;;;;;;;5036613;28;20698;-70
2022/11/02 13:28:46;;;;;;;19.50;4.20;;;;;;;;;;5036837;28;20171;-70
2022/11/02 13:31:15;;;;;;;13.93;3.47;;;;;;;;;;5054910;28;20214;-70
2022/11/02 13:33:48;;;;;;;10.40;2.63;;;;;;;;;;5054607;28;20197;-70
2022/11/02 13:36:14;;;;;;;11.13;3.13;;;;;;;;;;5054594;28;20214;-70
2022/11/02 13:38:54;;;;;;;14.37;3.60;;;;;;;;;;5036576;28;20174;-71
2022/11/02 13:41:32;;;;;;;11.63;3.70;;;;;;;;;;5036581;28;20175;-70
2022/11/02 13:44:04;;;;;;;8.40;3.00;;;;;;;;;;5036482;28;20595;-70
2022/11/02 13:46:41;;;;;;;14.23;3.70;;;;;;;;;;5036291;28;20589;-70
2022/11/02 13:49:15;;;;;;;12.77;3.00;;;;;;;;;;5036616;28;20224;-70
2022/11/02 13:51:50;;;;;;;10.60;2.70;;;;;;;;;;5055243;28;20172;-70
2022/11/02 13:54:15;;;;;;;14.33;3.70;;;;;;;;;;5057338;28;20607;-71
2022/11/02 13:56:42;;;;;;;10.90;3.03;;;;;;;;;;5055137;28;20233;-71
2022/11/02 13:59:09;;;;;;;10.97;2.93;;;;;;;;;;5054170;28;20601;-71
2022/11/02 14:01:38;;;;;;;11.63;3.40;;;;;;;;;;5054519;28;20183;-70
2022/11/02 14:04:09;;;;;;;13.30;3.80;;;;;;;;;;5036262;28;20182;-70
2022/11/02 14:06:48;;;;;;;17.53;3.30;;;;;;;;;;5036158;28;20224;-70
2022/11/02 14:09:22;;;;;;;11.50;3.20;;;;;;;;;;5054204;28;20262;-70
2022/11/02 14:11:49;;;;;;;12.53;3.73;;;;;;;;;;5054731;28;20159;-70
2022/11/02 14:14:17;;;;;;;12.80;3.17;;;;;;;;;;5053637;28;20182;-70
2022/11/02 14:16:49;;;;;;;10.60;3.00;;;;;;;;;;5054047;28;20199;-71
2022/11/02 14:19:18;;;;;;;15.67;3.30;;;;;;;;;;5036075;28;20618;-71
2022/11/02 14:22:04;;;;;;;12.13;3.33;;;;;;;;;;5054223;28;20175;-70
2022/11/02 14:24:33;;;;;;;13.20;3.20;;;;;;;;;;5053664;28;20186;-71
2022/11/02 14:27:04;;;;;;;12.77;3.97;;;;;;;;;;5035705;28;20210;-70
2022/11/02 14:29:35;;;;;;;12.97;3.03;;;;;;;;;;5054033;28;20181;-70
2022/11/02 14:32:05;;;;;;;15.47;4.20;;;;;;;;;;5054273;28;20529;-70
2022/11/02 14:34:38;;;;;;;13.13;3.50;;;;;;;;;;5036233;28;20325;-70
2022/11/02 14:37:10;;;;;;;14.33;3.10;;;;;;;;;;5053972;28;20260;-71
2022/11/02 14:39:55;;;;;;;10.63;3.10;;;;;;;;;;5056283;28;20227;-70
2022/11/02 14:42:42;;;;;;;16.77;3.63;;;;;;;;;;5050025;28;20189;-70
2022/11/02 14:45:11;;;;;;;13.07;3.33;;;;;;;;;;5065820;28;20642;-70
2022/11/02 14:47:37;;;;;;;12.47;3.27;;;;;;;;;;5048756;28;20203;-71
2022/11/02 14:50:13;;;;;;;12.23;3.60;;;;;;;;;;5035703;28;20549;-71
2022/11/02 14:52:40;;;;;;;11.77;3.07;;;;;;;;;;5035430;28;20173;-70
2022/11/02 14:55:09;;;;;;;5.10;2.63;;;;;;;;;;5035436;28;20178;-70
2022/11/02 14:57:40;;;;;;;13.13;3.10;;;;;;;;;;5035570;28;20294;-70